createdAt,value
2024-05-09T00:00:35.820Z,100303.14
2024-05-09T00:03:10.526Z,100307.15
2024-05-09T00:05:40.572Z,100307.77
2024-05-09T00:08:08.733Z,100302.62
2024-05-09T00:10:38.115Z,100308.08
2024-05-09T00:13:07.208Z,100308.38
2024-05-09T00:15:35.115Z,100306.22
2024-05-09T00:18:03.168Z,100311.06
2024-05-09T00:20:37.641Z,100310.63
2024-05-09T00:23:10.553Z,100311.41
2024-05-09T00:25:37.921Z,100319.58
2024-05-09T00:28:05.458Z,100322.27
2024-05-09T00:30:35.432Z,100322.65
2024-05-09T00:33:05.779Z,100330.61
2024-05-09T00:35:33.734Z,100331.75
2024-05-09T00:38:01.121Z,100333.39
2024-05-09T00:40:38.766Z,100333.15
2024-05-09T00:43:08.339Z,100337.21
2024-05-09T00:45:35.524Z,100332.75
2024-05-09T00:48:04.828Z,100333.13
2024-05-09T00:50:37.018Z,100337.36
2024-05-09T00:53:08.234Z,100337.98
2024-05-09T00:55:35.439Z,100343.70
2024-05-09T00:58:02.777Z,100345.41
2024-05-09T01:00:37.758Z,100341.45
2024-05-09T01:03:08.213Z,100342.83
2024-05-09T01:05:38.663Z,100346.23
2024-05-09T01:08:06.246Z,100345.59
2024-05-09T01:10:35.150Z,100348.02
2024-05-09T01:13:06.571Z,100356.13
2024-05-09T01:15:34.226Z,100353.84
2024-05-09T01:18:03.165Z,100359.96
2024-05-09T01:20:39.677Z,100363.05
2024-05-09T01:23:10.200Z,100369.74
2024-05-09T01:25:37.555Z,100377.09
2024-05-09T01:28:04.751Z,100381.94
2024-05-09T01:30:35.389Z,100391.77
2024-05-09T01:33:09.281Z,100389.38
2024-05-09T01:35:38.594Z,100390.08
2024-05-09T01:38:05.918Z,100399.92
2024-05-09T01:40:37.872Z,100407.39
2024-05-09T01:43:11.046Z,100404.06
2024-05-09T01:45:40.055Z,100411.98
2024-05-09T01:48:08.231Z,100415.08
2024-05-09T01:50:39.665Z,100413.70
2024-05-09T01:53:10.284Z,100419.00
2024-05-09T01:55:37.601Z,100418.83
2024-05-09T01:58:04.731Z,100418.75
2024-05-09T02:00:38.833Z,100422.73
2024-05-09T02:03:10.763Z,100424.36
2024-05-09T02:05:39.671Z,100423.55
2024-05-09T02:08:06.938Z,100435.52
2024-05-09T02:10:33.947Z,100438.49
2024-05-09T02:13:01.154Z,100439.67
2024-05-09T02:15:28.043Z,100435.75
2024-05-09T02:17:57.084Z,100440.16
2024-05-09T02:20:33.096Z,100444.41
2024-05-09T02:23:04.880Z,100443.30
2024-05-09T02:25:32.367Z,100444.03
2024-05-09T02:27:59.445Z,100443.76
2024-05-09T02:30:36.183Z,100449.71
2024-05-09T02:33:08.405Z,100452.91
2024-05-09T02:35:36.101Z,100458.62
2024-05-09T02:38:03.372Z,100463.66
2024-05-09T02:40:36.754Z,100466.87
2024-05-09T02:43:10.132Z,100471.27
2024-05-09T02:45:38.824Z,100475.95
2024-05-09T02:48:06.605Z,100477.31
2024-05-09T02:50:38.416Z,100477.00
2024-05-09T02:53:07.874Z,100479.47
2024-05-09T02:55:35.134Z,100482.64
2024-05-09T02:58:01.958Z,100483.55
2024-05-09T03:00:36.953Z,100489.93
2024-05-09T03:03:08.068Z,100490.45
2024-05-09T03:05:35.933Z,100491.95
2024-05-09T03:08:03.008Z,100494.52
2024-05-09T03:10:35.671Z,100491.25
2024-05-09T03:13:08.543Z,100501.79
2024-05-09T03:15:35.952Z,100502.55
2024-05-09T03:18:03.612Z,100508.00
2024-05-09T03:20:34.626Z,100501.47
2024-05-09T03:23:03.388Z,100505.53
2024-05-09T03:25:30.526Z,100500.63
2024-05-09T03:27:57.406Z,100503.00
2024-05-09T03:30:36.110Z,100507.86
2024-05-09T03:33:13.376Z,100504.57
2024-05-09T03:35:41.154Z,100503.23
2024-05-09T03:38:08.395Z,100503.60
2024-05-09T03:40:35.460Z,100504.92
2024-05-09T03:43:02.329Z,100510.41
2024-05-09T03:45:29.287Z,100510.40
2024-05-09T03:47:56.461Z,100513.75
2024-05-09T03:50:30.074Z,100513.73
2024-05-09T03:53:01.923Z,100510.70
2024-05-09T03:55:28.768Z,100512.20
2024-05-09T03:57:55.581Z,100518.08
2024-05-09T04:00:30.980Z,100517.41
2024-05-09T04:03:06.221Z,100512.02
2024-05-09T04:05:35.102Z,100512.08
2024-05-09T04:08:02.405Z,100516.42
2024-05-09T04:10:33.430Z,100519.58
2024-05-09T04:13:02.417Z,100521.02
2024-05-09T04:15:29.762Z,100521.25
2024-05-09T04:17:56.837Z,100522.97
2024-05-09T04:20:33.379Z,100527.75
2024-05-09T04:23:06.354Z,100528.22
2024-05-09T04:25:33.709Z,100532.13
2024-05-09T04:28:00.721Z,100529.61
2024-05-09T04:30:36.401Z,100535.89
2024-05-09T04:33:08.274Z,100542.49
2024-05-09T04:35:37.022Z,100544.11
2024-05-09T04:38:04.915Z,100543.99
2024-05-09T04:40:35.251Z,100542.51
2024-05-09T04:43:07.560Z,100542.11
2024-05-09T04:45:34.960Z,100537.76
2024-05-09T04:48:02.613Z,100538.65
2024-05-09T04:50:36.584Z,100538.13
2024-05-09T04:53:07.627Z,100542.10
2024-05-09T04:55:36.642Z,100536.91
2024-05-09T04:58:03.716Z,100544.46
2024-05-09T05:00:36.392Z,100549.45
2024-05-09T05:03:08.044Z,100556.83
2024-05-09T05:05:43.296Z,100553.96
2024-05-09T05:08:15.132Z,100556.84
2024-05-09T05:10:43.181Z,100558.50
2024-05-09T05:13:17.906Z,100555.30
2024-05-09T05:15:46.562Z,100556.72
2024-05-09T05:18:14.902Z,100560.63
2024-05-09T05:20:42.229Z,100566.73
2024-05-09T05:23:14.152Z,100571.64
2024-05-09T05:25:41.929Z,100569.59
2024-05-09T05:28:08.941Z,100563.86
2024-05-09T05:30:37.373Z,100567.70
2024-05-09T05:33:05.180Z,100570.70
2024-05-09T05:35:32.213Z,100569.31
2024-05-09T05:37:59.201Z,100574.21
2024-05-09T05:40:33.265Z,100574.05
2024-05-09T05:43:10.533Z,100569.80
2024-05-09T05:45:37.933Z,100566.72
2024-05-09T05:48:06.534Z,100571.84
2024-05-09T05:50:36.836Z,100581.14
2024-05-09T05:53:05.878Z,100585.09
2024-05-09T05:55:33.024Z,100583.88
2024-05-09T05:58:01.465Z,100585.25
2024-05-09T06:00:34.859Z,100591.06
2024-05-09T06:03:05.695Z,100587.90
2024-05-09T06:05:33.528Z,100583.84
2024-05-09T06:08:00.648Z,100587.00
2024-05-09T06:10:37.137Z,100586.79
2024-05-09T06:13:06.906Z,100584.81
2024-05-09T06:15:33.878Z,100584.61
2024-05-09T06:18:01.035Z,100576.59
2024-05-09T06:20:35.499Z,100580.02
2024-05-09T06:23:08.989Z,100576.67
2024-05-09T06:25:37.799Z,100578.22
2024-05-09T06:28:05.578Z,100578.59
2024-05-09T06:30:42.688Z,100573.28
2024-05-09T06:33:12.487Z,100581.18
2024-05-09T06:35:41.666Z,100574.65
2024-05-09T06:38:09.369Z,100574.12
2024-05-09T06:40:42.197Z,100575.77
2024-05-09T06:43:14.760Z,100570.14
2024-05-09T06:45:42.919Z,100575.31
2024-05-09T06:48:10.370Z,100577.74
2024-05-09T06:50:39.501Z,100575.24
2024-05-09T06:53:08.068Z,100570.53
2024-05-09T06:55:35.930Z,100574.21
2024-05-09T06:58:05.214Z,100578.32
2024-05-09T07:00:38.615Z,100569.61
2024-05-09T07:03:16.086Z,100580.48
2024-05-09T07:05:45.983Z,100571.49
2024-05-09T07:08:13.552Z,100572.66
2024-05-09T07:10:40.501Z,100577.58
2024-05-09T07:13:10.946Z,100578.48
2024-05-09T07:15:38.151Z,100574.98
2024-05-09T07:18:13.251Z,100580.20
2024-05-09T07:20:40.959Z,100579.08
2024-05-09T07:23:12.043Z,100581.19
2024-05-09T07:25:39.854Z,100582.11
2024-05-09T07:28:17.182Z,100583.93
2024-05-09T07:30:44.463Z,100582.84
2024-05-09T07:33:22.615Z,100580.89
2024-05-09T07:35:51.047Z,100574.70
2024-05-09T07:38:18.117Z,100568.65
2024-05-09T07:40:45.107Z,100569.35
2024-05-09T07:43:12.779Z,100572.04
2024-05-09T07:45:49.332Z,100572.83
2024-05-09T07:52:37.719Z,100584.89
2024-05-09T07:53:46.182Z,100578.58
2024-05-09T07:56:16.742Z,100582.84
2024-05-09T07:58:43.977Z,100576.70
2024-05-09T08:01:11.023Z,100573.06
2024-05-09T08:03:38.313Z,100569.33
2024-05-09T08:06:05.540Z,100567.62
2024-05-09T08:08:32.901Z,100568.19
2024-05-09T08:10:59.820Z,100570.40
2024-05-09T08:13:26.894Z,100569.19
2024-05-09T08:15:53.845Z,100565.33
2024-05-09T08:18:20.981Z,100568.04
2024-05-09T08:20:48.161Z,100569.77
2024-05-09T08:23:15.194Z,100569.45
2024-05-09T08:26:38.526Z,100570.48
2024-05-09T08:29:05.973Z,100570.61
2024-05-09T08:31:38.590Z,100570.39
2024-05-09T08:34:07.176Z,100571.35
2024-05-09T08:36:35.304Z,100568.09
2024-05-09T08:39:02.468Z,100563.48
2024-05-09T08:41:49.227Z,100562.12
2024-05-09T08:44:16.481Z,100555.74
2024-05-09T08:46:44.445Z,100557.94
2024-05-09T08:49:12.066Z,100543.91
2024-05-09T08:51:39.317Z,100560.27
2024-05-09T08:54:06.508Z,100554.60
2024-05-09T08:56:34.584Z,100556.02
2024-05-09T08:59:02.144Z,100557.05
2024-05-09T09:01:33.213Z,100547.97
2024-05-09T09:04:02.720Z,100555.11
2024-05-09T09:06:30.334Z,100561.63
2024-05-09T09:08:57.602Z,100556.70
2024-05-09T09:11:24.812Z,100556.07
2024-05-09T09:13:52.357Z,100555.42
2024-05-09T09:16:19.634Z,100551.88
2024-05-09T09:18:48.228Z,100544.42
2024-05-09T09:21:17.435Z,100548.18
2024-05-09T09:23:45.664Z,100543.48
2024-05-09T09:26:16.089Z,100540.56
2024-05-09T09:28:44.721Z,100545.94
2024-05-09T09:31:11.769Z,100551.92
2024-05-09T09:33:42.421Z,100550.63
2024-05-09T09:36:13.525Z,100547.75
2024-05-09T09:38:40.703Z,100537.03
2024-05-09T09:41:08.348Z,100534.21
2024-05-09T09:43:35.453Z,100539.21
2024-05-09T09:46:02.682Z,100532.72
2024-05-09T09:48:31.202Z,100540.58
2024-05-09T09:50:58.216Z,100539.86
2024-05-09T09:53:25.078Z,100538.29
2024-05-09T09:59:13.496Z,100525.80
2024-05-09T10:01:44.397Z,100527.20
2024-05-09T10:04:18.767Z,100521.56
2024-05-09T10:06:51.231Z,100517.58
2024-05-09T10:09:18.580Z,100521.91
2024-05-09T10:11:51.781Z,100518.78
2024-05-09T10:14:22.800Z,100518.20
2024-05-09T10:16:50.256Z,100517.14
2024-05-09T10:19:27.526Z,100513.02
2024-05-09T10:22:03.472Z,100512.13
2024-05-09T10:24:50.056Z,100509.32
2024-05-09T10:27:28.850Z,100504.44
2024-05-09T10:29:57.139Z,100501.52
2024-05-09T10:32:26.744Z,100498.13
2024-05-09T10:35:15.138Z,100496.48
2024-05-09T10:37:42.484Z,100486.59
2024-05-09T10:40:23.081Z,100491.16
2024-05-09T10:42:56.799Z,100492.23
2024-05-09T10:45:24.851Z,100487.52
2024-05-09T10:47:55.776Z,100480.77
2024-05-09T10:50:28.511Z,100477.98
2024-05-09T10:52:59.101Z,100477.23
2024-05-09T10:55:27.579Z,100474.09
2024-05-09T10:57:54.841Z,100460.61
2024-05-09T11:00:27.783Z,100466.22
2024-05-09T11:03:00.939Z,100465.34
2024-05-09T11:05:28.577Z,100466.18
2024-05-09T11:07:56.056Z,100468.30
2024-05-09T11:10:27.865Z,100460.04
2024-05-09T11:13:01.683Z,100454.18
2024-05-09T11:15:41.898Z,100449.95
2024-05-09T11:18:24.239Z,100445.14
2024-05-09T11:20:53.165Z,100440.93
2024-05-09T11:23:21.959Z,100438.80
2024-05-09T11:25:53.083Z,100436.94
2024-05-09T11:28:20.791Z,100445.85
2024-05-09T11:30:48.939Z,100446.79
2024-05-09T11:33:17.101Z,100441.75
2024-05-09T11:35:44.750Z,100438.77
2024-05-09T11:38:12.322Z,100431.09
2024-05-09T11:40:39.549Z,100436.09
2024-05-09T11:43:07.100Z,100433.67
2024-05-09T11:45:34.413Z,100431.58
2024-05-09T11:48:02.149Z,100428.79
2024-05-09T11:50:34.673Z,100431.40
2024-05-09T11:53:02.882Z,100425.44
2024-05-09T11:55:31.052Z,100426.09
2024-05-09T11:57:58.870Z,100418.44
2024-05-09T12:00:33.992Z,100418.95
2024-05-09T12:03:06.025Z,100414.51
2024-05-09T12:05:34.212Z,100416.02
2024-05-09T12:08:02.252Z,100417.10
2024-05-09T12:10:33.494Z,100413.05
2024-05-09T12:13:04.913Z,100406.98
2024-05-09T12:15:36.847Z,100407.83
2024-05-09T12:18:05.316Z,100388.08
2024-05-09T12:20:37.554Z,100400.03
2024-05-09T12:23:07.400Z,100404.39
2024-05-09T12:25:35.832Z,100404.65
2024-05-09T12:28:03.442Z,100401.77
2024-05-09T12:30:36.709Z,100400.27
2024-05-09T12:33:11.506Z,100396.55
2024-05-09T12:35:39.772Z,100384.00
2024-05-09T12:38:06.971Z,100385.17
2024-05-09T12:40:37.729Z,100381.44
2024-05-09T12:43:06.764Z,100387.16
2024-05-09T12:45:34.287Z,100384.24
2024-05-09T12:48:01.683Z,100381.80
2024-05-09T12:50:33.251Z,100383.08
2024-05-09T12:53:03.031Z,100379.28
2024-05-09T12:55:37.364Z,100374.38
2024-05-09T12:58:11.962Z,100372.48
2024-05-09T13:00:39.441Z,100367.80
2024-05-09T13:03:07.220Z,100364.34
2024-05-09T13:05:34.697Z,100366.66
2024-05-09T13:08:03.450Z,100362.41
2024-05-09T13:10:32.846Z,100364.41
2024-05-09T13:13:01.777Z,100363.52
2024-05-09T13:15:31.005Z,100349.73
2024-05-09T13:18:01.857Z,100355.91
2024-05-09T13:20:34.386Z,100347.06
2024-05-09T13:23:03.917Z,100350.15
2024-05-09T13:25:31.609Z,100348.95
2024-05-09T13:27:58.993Z,100344.61
2024-05-09T13:30:35.528Z,100344.41
2024-05-09T13:33:08.356Z,100346.65
2024-05-09T13:35:36.235Z,100347.95
2024-05-09T13:38:04.489Z,100344.29
2024-05-09T13:48:10.130Z,100340.20
2024-05-09T13:50:37.964Z,100339.30
2024-05-09T13:53:06.980Z,100338.77
2024-05-09T13:55:37.370Z,100330.45
2024-05-09T13:58:04.597Z,100325.72
2024-05-09T14:00:42.482Z,100319.89
2024-05-09T14:03:15.119Z,100322.81
2024-05-09T14:05:42.941Z,100322.27
2024-05-09T14:08:09.874Z,100324.48
2024-05-09T14:10:43.102Z,100323.11
2024-05-09T14:13:10.176Z,100314.38
2024-05-09T14:15:37.526Z,100314.67
2024-05-09T14:18:04.721Z,100311.04
2024-05-09T14:20:32.585Z,100307.76
2024-05-09T14:23:00.847Z,100302.16
2024-05-09T14:25:29.106Z,100305.57
2024-05-09T14:27:57.495Z,100307.22
2024-05-09T14:30:31.206Z,100302.23
2024-05-09T14:33:04.168Z,100303.41
2024-05-09T14:35:31.409Z,100302.98
2024-05-09T14:37:58.610Z,100294.65
2024-05-09T14:40:35.933Z,100292.55
2024-05-09T14:43:08.022Z,100296.02
2024-05-09T14:45:35.184Z,100298.38
2024-05-09T14:48:02.854Z,100295.13
2024-05-09T14:50:35.948Z,100286.07
2024-05-09T14:53:07.240Z,100285.10
2024-05-09T14:55:36.698Z,100290.13
2024-05-09T14:58:07.934Z,100284.48
2024-05-09T15:00:44.421Z,100285.57
2024-05-09T15:03:15.061Z,100289.77
2024-05-09T15:05:42.455Z,100288.63
2024-05-09T15:08:09.529Z,100290.30
2024-05-09T15:10:37.394Z,100290.23
2024-05-09T15:13:06.554Z,100287.64
2024-05-09T15:15:35.284Z,100291.56
2024-05-09T15:18:06.515Z,100293.27
2024-05-09T15:20:36.502Z,100288.73
2024-05-09T15:23:04.736Z,100285.73
2024-05-09T15:25:33.099Z,100293.65
2024-05-09T15:28:00.230Z,100283.20
2024-05-09T15:30:31.503Z,100285.27
2024-05-09T15:33:03.251Z,100284.94
2024-05-09T15:35:30.870Z,100280.67
2024-05-09T15:37:57.823Z,100280.54
2024-05-09T15:40:34.450Z,100282.80
2024-05-09T15:43:06.735Z,100283.25
2024-05-09T15:45:35.651Z,100285.33
2024-05-09T15:48:03.684Z,100284.51
2024-05-09T15:50:37.472Z,100282.77
2024-05-09T15:53:09.254Z,100281.48
2024-05-09T15:55:37.091Z,100286.30
2024-05-09T15:58:04.793Z,100285.71
2024-05-09T16:00:38.511Z,100284.77
2024-05-09T16:03:10.509Z,100285.48
2024-05-09T16:05:38.226Z,100285.19
2024-05-09T16:08:06.175Z,100276.39
2024-05-09T16:10:35.358Z,100284.67
2024-05-09T16:13:03.549Z,100286.79
2024-05-09T16:15:34.291Z,100292.11
2024-05-09T16:18:02.741Z,100288.46
2024-05-09T16:20:38.127Z,100284.44
2024-05-09T19:57:10.245Z,100432.38
2024-05-09T19:59:37.753Z,100433.00
2024-05-09T20:02:05.495Z,100433.95
2024-05-09T20:04:34.719Z,100437.85
2024-05-09T20:07:02.606Z,100435.86
2024-05-09T20:09:30.194Z,100435.21
2024-05-09T20:11:57.353Z,100439.71
2024-05-09T20:14:25.812Z,100440.45
2024-05-09T20:16:52.821Z,100444.05
2024-05-09T20:19:21.619Z,100443.88
2024-05-09T20:21:49.681Z,100446.60
2024-05-09T20:24:17.035Z,100448.84
2024-05-09T20:26:44.917Z,100448.05
2024-05-09T20:29:12.147Z,100450.65
2024-05-09T20:31:41.323Z,100451.89
2024-05-09T20:34:08.750Z,100452.63
2024-05-09T20:36:36.516Z,100455.70
2024-05-09T20:39:04.046Z,100456.73
2024-05-09T20:41:32.025Z,100455.23
2024-05-09T20:51:52.534Z,100457.15
2024-05-09T20:54:19.434Z,100454.75
2024-05-09T20:56:47.041Z,100460.77
2024-05-09T20:59:13.677Z,100458.70
2024-05-09T21:01:40.942Z,100457.45
2024-05-09T21:04:08.332Z,100459.96
2024-05-09T21:06:35.372Z,100458.42
2024-05-09T21:09:02.326Z,100462.77
2024-05-09T21:11:29.266Z,100463.90
2024-05-09T21:13:56.076Z,100460.42
2024-05-09T21:16:23.032Z,100458.85
2024-05-09T21:18:49.857Z,100463.63
2024-05-09T21:21:16.650Z,100466.09
2024-05-09T21:23:44.142Z,100467.20
2024-05-09T21:26:11.518Z,100466.17
2024-05-09T21:28:38.172Z,100466.30
2024-05-09T21:31:04.775Z,100467.34
2024-05-09T21:33:31.701Z,100467.88
2024-05-09T21:35:58.065Z,100468.63
2024-05-09T21:38:24.473Z,100468.96
2024-05-09T21:40:50.913Z,100474.48
2024-05-09T21:43:17.691Z,100478.75
2024-05-09T21:45:44.217Z,100473.16
2024-05-09T21:48:12.010Z,100479.32
2024-05-09T21:50:41.373Z,100476.65
2024-05-09T21:53:10.218Z,100477.42
2024-05-09T21:55:36.646Z,100480.29
2024-05-09T21:58:03.682Z,100479.15
2024-05-09T22:00:36.342Z,100481.42
2024-05-09T22:03:08.751Z,100483.05
2024-05-09T22:05:36.788Z,100483.91
2024-05-09T22:08:03.218Z,100485.86
2024-05-09T22:10:34.279Z,100488.59
2024-05-09T22:13:04.331Z,100493.48
2024-05-09T22:15:34.858Z,100493.66
2024-05-09T22:18:01.294Z,100499.85
2024-05-09T22:20:34.406Z,100500.16
2024-05-09T22:23:04.536Z,100496.21
2024-05-09T22:25:32.090Z,100498.11
2024-05-09T22:27:59.674Z,100496.86
2024-05-09T22:30:34.355Z,100497.79
2024-05-09T22:33:05.186Z,100498.03
2024-05-09T22:35:31.764Z,100495.45
2024-05-09T22:37:58.126Z,100495.34
2024-05-09T22:40:33.470Z,100495.03
2024-05-09T22:43:09.379Z,100495.24
2024-05-09T22:45:36.046Z,100500.42
2024-05-09T22:48:02.598Z,100503.02
2024-05-09T22:50:33.273Z,100501.02
2024-05-09T22:53:00.207Z,100502.54
2024-05-09T22:55:26.525Z,100501.55
2024-05-09T22:57:52.785Z,100498.23
2024-05-09T23:00:25.680Z,100495.29
2024-05-09T23:02:55.797Z,100501.11
2024-05-09T23:05:22.259Z,100500.52
2024-05-09T23:07:48.743Z,100499.55
2024-05-09T23:10:21.283Z,100494.93
2024-05-09T23:12:54.536Z,100494.57
2024-05-09T23:15:20.996Z,100492.42
2024-05-09T23:17:47.616Z,100495.38
2024-05-09T23:20:14.952Z,100493.88
2024-05-09T23:22:41.400Z,100492.45
2024-05-09T23:25:07.778Z,100499.79
2024-05-09T23:27:34.218Z,100493.86
2024-05-09T23:30:00.538Z,100495.80
2024-05-09T23:32:27.022Z,100494.89
2024-05-09T23:34:53.542Z,100492.40
2024-05-09T23:37:20.085Z,100490.23
2024-05-09T23:39:46.495Z,100490.02
2024-05-09T23:42:12.825Z,100492.56
2024-05-09T23:44:39.073Z,100492.19
2024-05-09T23:47:06.830Z,100494.23
2024-05-09T23:49:34.949Z,100498.02
2024-05-09T23:52:01.381Z,100495.53
2024-05-09T23:54:27.729Z,100496.13
2024-05-09T23:56:54.108Z,100496.17
2024-05-09T23:59:20.383Z,100492.85
